75939 UUMU-UUMU
Flight info
| Callsign | 75939 |
|---|---|
| Flight time | 0h 10m |
| Altitude | 5000 |
| Route | /RA/M0060 |
| Aircraft | IL18/M-S/C |
Departure
| Time | 2026-04-29 18:33 |
|---|---|
| Airport | Chkalovskiy Air Base (UUMU) |
Arrival
| Time | 2026-04-29 18:43 |
|---|---|
| Airport | Chkalovskiy Air Base (UUMU) |
| Time | Latitude | Longitude | Altitude | Speed | Heading |
|---|---|---|---|---|---|
| 2026-04-29 18:18 | 55.87941 | 38.02952 | 507 ft | 0 kts | 102° |
| 2026-04-29 18:20 | 55.87941 | 38.02955 | 507 ft | 2 kts | 102° |
| 2026-04-29 18:20 | 55.87932 | 38.03061 | 507 ft | 6 kts | 72° |
| 2026-04-29 18:21 | 55.88030 | 38.03108 | 507 ft | 22 kts | 9° |
| 2026-04-29 18:21 | 55.88220 | 38.03162 | 507 ft | 32 kts | 9° |
| 2026-04-29 18:21 | 55.88444 | 38.03202 | 507 ft | 31 kts | 18° |
| 2026-04-29 18:21 | 55.88608 | 38.03327 | 507 ft | 14 kts | 14° |
| 2026-04-29 18:22 | 55.88649 | 38.03455 | 507 ft | 13 kts | 99° |
| 2026-04-29 18:22 | 55.88633 | 38.03618 | 507 ft | 13 kts | 98° |
| 2026-04-29 18:22 | 55.88667 | 38.03728 | 507 ft | 10 kts | 17° |
| 2026-04-29 18:22 | 55.88726 | 38.03745 | 507 ft | 7 kts | 8° |
| 2026-04-29 18:23 | 55.88767 | 38.03762 | 507 ft | 4 kts | 27° |
| 2026-04-29 18:23 | 55.88785 | 38.03794 | 507 ft | 3 kts | 47° |
| 2026-04-29 18:23 | 55.88810 | 38.03860 | 507 ft | 12 kts | 83° |
| 2026-04-29 18:23 | 55.88744 | 38.04036 | 507 ft | 20 kts | 130° |
| 2026-04-29 18:24 | 55.88652 | 38.04231 | 507 ft | 20 kts | 129° |
| 2026-04-29 18:24 | 55.88570 | 38.04420 | 507 ft | 18 kts | 127° |
| 2026-04-29 18:24 | 55.88496 | 38.04599 | 507 ft | 17 kts | 126° |
| 2026-04-29 18:24 | 55.88416 | 38.04758 | 507 ft | 20 kts | 150° |
| 2026-04-29 18:25 | 55.88297 | 38.04973 | 507 ft | 26 kts | 129° |
| 2026-04-29 18:25 | 55.88181 | 38.05215 | 507 ft | 24 kts | 131° |
| 2026-04-29 18:25 | 55.88074 | 38.05439 | 507 ft | 23 kts | 130° |
| 2026-04-29 18:25 | 55.88037 | 38.05517 | 507 ft | 22 kts | 130° |
| 2026-04-29 18:26 | 55.87937 | 38.05730 | 507 ft | 24 kts | 130° |
| 2026-04-29 18:26 | 55.87799 | 38.06016 | 507 ft | 36 kts | 131° |
| 2026-04-29 18:26 | 55.87613 | 38.06403 | 507 ft | 45 kts | 130° |
| 2026-04-29 18:27 | 55.87410 | 38.06832 | 507 ft | 44 kts | 133° |
| 2026-04-29 18:27 | 55.87242 | 38.07186 | 507 ft | 19 kts | 109° |
| 2026-04-29 18:27 | 55.87302 | 38.07345 | 507 ft | 17 kts | 3° |
| 2026-04-29 18:27 | 55.87410 | 38.07362 | 507 ft | 14 kts | 7° |
| 2026-04-29 18:28 | 55.87498 | 38.07377 | 507 ft | 11 kts | 353° |
| 2026-04-29 18:28 | 55.87550 | 38.07317 | 507 ft | 8 kts | 308° |
| 2026-04-29 18:28 | 55.87558 | 38.07301 | 507 ft | 0 kts | 308° |
| 2026-04-29 18:32 | 55.87850 | 38.06693 | 508 ft | 95 kts | 310° |
| 2026-04-29 18:32 | 55.88376 | 38.05584 | 599 ft | 129 kts | 311° |
| 2026-04-29 18:33 | 55.88970 | 38.04305 | 863 ft | 141 kts | 312° |
| 2026-04-29 18:33 | 55.89637 | 38.02969 | 1185 ft | 150 kts | 314° |
| 2026-04-29 18:33 | 55.90419 | 38.01515 | 1379 ft | 170 kts | 316° |
| 2026-04-29 18:33 | 55.91410 | 38.00305 | 1534 ft | 187 kts | 344° |
| 2026-04-29 18:34 | 55.92786 | 38.00473 | 1581 ft | 206 kts | 18° |
| 2026-04-29 18:34 | 55.93594 | 38.01279 | 1982 ft | 202 kts | 34° |
| 2026-04-29 18:34 | 55.94849 | 38.03790 | 2133 ft | 211 kts | 46° |
| 2026-04-29 18:34 | 55.95882 | 38.05731 | 2047 ft | 217 kts | 41° |
| 2026-04-29 18:35 | 55.96943 | 38.07574 | 2267 ft | 207 kts | 47° |
| 2026-04-29 18:35 | 55.97492 | 38.09967 | 2183 ft | 219 kts | 80° |
| 2026-04-29 18:35 | 55.97336 | 38.12734 | 2061 ft | 231 kts | 108° |
| 2026-04-29 18:35 | 55.96423 | 38.15057 | 2188 ft | 226 kts | 131° |
| 2026-04-29 18:36 | 55.95310 | 38.16980 | 2136 ft | 226 kts | 136° |
| 2026-04-29 18:36 | 55.94232 | 38.19083 | 1769 ft | 234 kts | 124° |
| 2026-04-29 18:36 | 55.93326 | 38.21492 | 1727 ft | 230 kts | 122° |
| 2026-04-29 18:36 | 55.92342 | 38.23679 | 1761 ft | 222 kts | 131° |
| 2026-04-29 18:37 | 55.91243 | 38.25584 | 1636 ft | 223 kts | 137° |
| 2026-04-29 18:37 | 55.90060 | 38.27503 | 1492 ft | 229 kts | 136° |
| 2026-04-29 18:37 | 55.88999 | 38.29439 | 1751 ft | 215 kts | 131° |
| 2026-04-29 18:37 | 55.87974 | 38.31417 | 1643 ft | 222 kts | 129° |
| 2026-04-29 18:38 | 55.86988 | 38.33622 | 1583 ft | 222 kts | 126° |
| 2026-04-29 18:38 | 55.85817 | 38.35099 | 1907 ft | 205 kts | 163° |
| 2026-04-29 18:38 | 55.84379 | 38.35331 | 1703 ft | 213 kts | 186° |
| 2026-04-29 18:38 | 55.83048 | 38.34479 | 1833 ft | 195 kts | 225° |
| 2026-04-29 18:39 | 55.82156 | 38.32723 | 1687 ft | 200 kts | 234° |
| 2026-04-29 18:39 | 55.81278 | 38.30707 | 1540 ft | 205 kts | 237° |
| 2026-04-29 18:39 | 55.80450 | 38.28796 | 1645 ft | 188 kts | 236° |
| 2026-04-29 18:39 | 55.79649 | 38.27006 | 1414 ft | 177 kts | 239° |
| 2026-04-29 18:40 | 55.79156 | 38.25156 | 1637 ft | 158 kts | 265° |
| 2026-04-29 18:40 | 55.79368 | 38.23417 | 1897 ft | 143 kts | 316° |
| 2026-04-29 18:40 | 55.80269 | 38.22606 | 2001 ft | 151 kts | 339° |
| 2026-04-29 18:40 | 55.81131 | 38.21690 | 2290 ft | 142 kts | 311° |
| 2026-04-29 18:41 | 55.81901 | 38.16151 | 2115 ft | 158 kts | 317° |
| 2026-04-29 18:41 | 55.82912 | 38.15289 | 1809 ft | 171 kts | 346° |
| 2026-04-29 18:42 | 55.83971 | 38.14818 | 2192 ft | 137 kts | 342° |
| 2026-04-29 18:42 | 55.84762 | 38.13798 | 1808 ft | 159 kts | 303° |
| 2026-04-29 18:42 | 55.84942 | 38.11790 | 1632 ft | 158 kts | 284° |
| 2026-04-29 18:42 | 55.85650 | 38.10422 | 1237 ft | 156 kts | 317° |
| 2026-04-29 18:43 | 55.86378 | 38.08948 | 624 ft | 156 kts | 313° |
| 2026-04-29 18:43 | 55.87022 | 38.07624 | 515 ft | 127 kts | 313° |
| 2026-04-29 18:43 | 55.87443 | 38.06751 | 507 ft | 39 kts | 310° |
| 2026-04-29 18:43 | 55.87603 | 38.06430 | 507 ft | 36 kts | 311° |
| 2026-04-29 18:44 | 55.87772 | 38.06074 | 507 ft | 39 kts | 310° |
| 2026-04-29 18:44 | 55.87953 | 38.05701 | 507 ft | 40 kts | 311° |
| 2026-04-29 18:44 | 55.88144 | 38.05316 | 507 ft | 41 kts | 316° |
| 2026-04-29 18:44 | 55.88332 | 38.04915 | 507 ft | 42 kts | 311° |
| 2026-04-29 18:45 | 55.88524 | 38.04516 | 507 ft | 43 kts | 309° |
| 2026-04-29 18:45 | 55.88717 | 38.04103 | 507 ft | 43 kts | 310° |
| 2026-04-29 18:45 | 55.88785 | 38.03802 | 507 ft | 23 kts | 238° |
| 2026-04-29 18:45 | 55.88650 | 38.03714 | 507 ft | 15 kts | 204° |
| 2026-04-29 18:46 | 55.88640 | 38.03557 | 507 ft | 13 kts | 278° |